Terminal Aerodrome Forecast
Issued by NWS

Home | Current Version | Previous Version | Text Only | Print | Product List | Glossary On
Versions: 1 2 3 4 5 6 7 8 9 10 11 12 13 14 15 16 17 18 19 20 21 22 23 24 25 26 27 28
000
FTUS42 KCAE 221700 RRA
TAFOGB
TAF
KOGB 221746Z 2218/2318 08005KT P6SM VCSH SCT025 BKN035
      TEMPO 2218/2219 SHRA BKN025
     FM222300 12005KT P6SM VCSH SCT020 BKN040
     FM230600 VRB03KT 4SM BR SCT120 BKN250
      TEMPO 2310/2314 2SM BR BKN070
     FM231600 VRB05KT P6SM SCT025 BKN120=

USA.gov is the U.S. government's official web portal to all federal, state and local government web resources and services.